Time;durP1;ratioP1;P1;durP2;ratioP2;P2;SDS_P1;SDS_P2;PMS_P1;PMS_P2;Temp;Humidity;BMP_temperature;BMP_pressure;BME280_temperature;BME280_humidity;BME280_pressure;Samples;Min_cycle;Max_cycle;Signal;HPM_P1;HPM_P2
2024/02/23 00:01:02;;;;;;;2.58;1.17;;;9.00;99.90;;;;;;5006559;28;20406;-54
2024/02/23 00:03:28;;;;;;;1.38;0.80;;;9.00;99.90;;;;;;5009726;28;20033;-52
2024/02/23 00:05:53;;;;;;;2.35;0.60;;;9.00;99.90;;;;;;5009133;28;20030;-55
2024/02/23 00:08:19;;;;;;;3.95;1.00;;;9.00;99.90;;;;;;5009736;28;20033;-54
2024/02/23 00:10:44;;;;;;;0.85;0.60;;;8.90;99.90;;;;;;5012657;28;20064;-50
2024/02/23 00:13:10;;;;;;;2.38;0.60;;;8.90;99.90;;;;;;5009959;28;20464;-56
2024/02/23 00:15:35;;;;;;;3.38;1.25;;;8.90;99.90;;;;;;4992510;28;20350;-51
2024/02/23 00:18:03;;;;;;;3.50;0.93;;;8.80;99.90;;;;;;4991878;28;20026;-55
2024/02/23 00:20:29;;;;;;;1.40;0.80;;;8.80;99.90;;;;;;4990876;28;20526;-49
2024/02/23 00:22:54;;;;;;;2.95;1.98;;;8.80;99.90;;;;;;4989652;28;20042;-48
2024/02/23 00:25:20;;;;;;;1.75;0.80;;;8.70;99.90;;;;;;4989554;28;20539;-46
2024/02/23 00:27:46;;;;;;;3.25;1.00;;;8.70;99.90;;;;;;4990276;28;20042;-52
2024/02/23 00:30:13;;;;;;;4.95;0.95;;;8.70;99.90;;;;;;4989630;28;20496;-53
2024/02/23 00:32:38;;;;;;;1.70;1.17;;;8.70;99.90;;;;;;4989475;28;20089;-46
2024/02/23 00:35:04;;;;;;;2.83;0.80;;;8.70;99.90;;;;;;4989545;28;20031;-45
2024/02/23 00:37:35;;;;;;;1.20;0.52;;;8.70;99.90;;;;;;4989370;28;20056;-47
2024/02/23 00:40:04;;;;;;;2.50;0.82;;;8.60;99.90;;;;;;4989339;28;20038;-45
2024/02/23 00:42:30;;;;;;;2.42;1.23;;;8.60;99.90;;;;;;4989383;28;20030;-49
2024/02/23 00:44:56;;;;;;;2.27;1.50;;;8.60;99.90;;;;;;4989636;28;20074;-48
2024/02/23 00:47:21;;;;;;;4.22;0.90;;;8.60;99.90;;;;;;5004108;28;20130;-50
2024/02/23 00:49:47;;;;;;;1.83;0.90;;;8.50;99.90;;;;;;4989270;28;20023;-49
2024/02/23 00:52:12;;;;;;;3.88;1.30;;;8.50;99.90;;;;;;5004361;28;20267;-50
2024/02/23 00:54:38;;;;;;;6.22;0.73;;;8.50;99.90;;;;;;4989046;28;20077;-48
2024/02/23 00:57:05;;;;;;;3.20;1.10;;;;;;;;;;4988580;28;20038;-51
2024/02/23 00:59:30;;;;;;;2.28;0.60;;;8.40;99.90;;;;;;4989349;28;20080;-45
2024/02/23 01:01:56;;;;;;;4.80;0.80;;;8.30;99.90;;;;;;4989022;28;20061;-49
2024/02/23 01:04:21;;;;;;;1.33;0.88;;;8.30;99.90;;;;;;4989278;28;20073;-50
2024/02/23 01:06:47;;;;;;;5.07;0.93;;;8.30;99.90;;;;;;4991342;28;20034;-48
2024/02/23 01:09:13;;;;;;;1.23;0.80;;;8.30;99.90;;;;;;4992959;28;20038;-50
2024/02/23 01:11:38;;;;;;;2.88;1.17;;;8.20;99.90;;;;;;4993060;28;20045;-47
2024/02/23 01:14:05;;;;;;;1.52;0.70;;;8.20;99.90;;;;;;4993541;28;20081;-50
2024/02/23 01:16:32;;;;;;;4.28;0.90;;;8.20;99.90;;;;;;5008540;23;20097;-61
2024/02/23 01:18:57;;;;;;;7.65;1.25;;;8.10;99.90;;;;;;4994191;28;20687;-57
2024/02/23 01:21:23;;;;;;;2.10;0.65;;;8.10;99.90;;;;;;4978377;28;20121;-56
2024/02/23 01:23:49;;;;;;;1.00;0.70;;;8.00;99.90;;;;;;4996048;28;20396;-58
2024/02/23 01:26:14;;;;;;;1.15;0.80;;;7.90;99.90;;;;;;4995405;28;20086;-53
2024/02/23 01:28:40;;;;;;;3.47;0.85;;;7.80;99.90;;;;;;4978048;28;20038;-54
2024/02/23 01:31:10;;;;;;;1.75;0.90;;;7.80;99.90;;;;;;4995341;28;20451;-54
2024/02/23 01:33:37;;;;;;;0.40;0.40;;;7.70;99.90;;;;;;4977735;28;20026;-52
2024/02/23 01:36:06;;;;;;;1.20;0.75;;;7.60;99.90;;;;;;4995028;28;20030;-55
2024/02/23 01:38:32;;;;;;;0.52;0.52;;;7.60;99.90;;;;;;4995420;28;20388;-53
2024/02/23 01:41:01;;;;;;;0.77;0.75;;;7.50;99.90;;;;;;4995374;28;20149;-55
2024/02/23 01:43:27;;;;;;;1.02;0.52;;;7.40;99.90;;;;;;4995158;28;20052;-50
2024/02/23 01:45:53;;;;;;;5.78;1.35;;;7.30;99.90;;;;;;4994782;28;20030;-50
2024/02/23 01:48:19;;;;;;;4.32;1.20;;;7.30;99.90;;;;;;4995543;28;20022;-48
2024/02/23 01:50:45;;;;;;;2.30;1.70;;;7.30;99.90;;;;;;4995149;28;20396;-51
2024/02/23 01:53:12;;;;;;;1.88;0.70;;;7.30;99.90;;;;;;4977531;28;20031;-52
2024/02/23 01:55:41;;;;;;;0.88;0.55;;;7.40;99.90;;;;;;4994952;28;20026;-54
2024/02/23 01:58:07;;;;;;;3.90;0.85;;;7.20;99.90;;;;;;4995264;28;20033;-51
2024/02/23 02:00:35;;;;;;;2.47;0.95;;;7.30;99.90;;;;;;4995076;28;20026;-50
2024/02/23 02:03:00;;;;;;;0.40;0.40;;;7.20;99.90;;;;;;4995408;28;20113;-58
2024/02/23 02:05:26;;;;;;;1.05;0.77;;;7.30;99.90;;;;;;4995558;28;20524;-58
2024/02/23 02:07:58;;;;;;;7.65;1.10;;;7.30;99.90;;;;;;4978501;28;20506;-57
2024/02/23 02:10:24;;;;;;;3.78;0.80;;;7.30;99.90;;;;;;4978397;28;20033;-56
2024/02/23 02:12:49;;;;;;;1.65;0.82;;;7.30;99.90;;;;;;4978639;28;20026;-53
2024/02/23 02:15:15;;;;;;;1.00;0.52;;;7.30;99.90;;;;;;4976871;28;20062;-56
2024/02/23 02:17:40;;;;;;;5.20;1.48;;;7.20;99.90;;;;;;4994310;28;20041;-57
2024/02/23 02:20:11;;;;;;;2.53;0.70;;;7.20;99.90;;;;;;4994747;28;20022;-55
2024/02/23 02:22:36;;;;;;;1.25;0.88;;;7.20;99.90;;;;;;4994550;28;20037;-57
2024/02/23 02:25:02;;;;;;;1.98;0.50;;;7.20;99.90;;;;;;4994180;28;20419;-56
2024/02/23 02:27:28;;;;;;;2.75;0.50;;;7.10;99.90;;;;;;4994223;28;20026;-53
2024/02/23 02:29:53;;;;;;;1.85;0.60;;;7.10;99.90;;;;;;4994421;28;20035;-51
2024/02/23 02:32:19;;;;;;;2.47;0.90;;;7.00;99.90;;;;;;4993235;28;20395;-56
2024/02/23 02:34:44;;;;;;;4.57;0.98;;;7.00;99.90;;;;;;4994238;28;20061;-55
2024/02/23 02:37:10;;;;;;;3.28;0.80;;;7.00;99.90;;;;;;4994183;28;20453;-51
2024/02/23 02:39:36;;;;;;;2.95;0.80;;;6.90;99.90;;;;;;4994198;28;20400;-54
2024/02/23 02:42:01;;;;;;;2.55;0.80;;;6.90;99.90;;;;;;4994392;28;20037;-56
2024/02/23 02:44:30;;;;;;;1.48;0.75;;;6.80;99.90;;;;;;4994825;28;20101;-53
2024/02/23 02:46:58;;;;;;;6.30;0.95;;;6.80;99.90;;;;;;4994263;28;20105;-57
2024/02/23 02:49:24;;;;;;;1.70;0.82;;;6.80;99.90;;;;;;4994142;28;20022;-57
2024/02/23 02:51:50;;;;;;;2.47;1.17;;;6.70;99.90;;;;;;4976628;28;20026;-56
2024/02/23 02:54:16;;;;;;;5.88;0.93;;;6.70;99.90;;;;;;4992558;28;20403;-58
2024/02/23 02:56:43;;;;;;;11.20;1.40;;;6.80;99.90;;;;;;4976149;28;20026;-54
2024/02/23 02:59:10;;;;;;;3.53;0.70;;;6.70;99.90;;;;;;4976681;28;20407;-56
2024/02/23 03:01:35;;;;;;;4.15;0.65;;;6.70;99.90;;;;;;4976421;28;20061;-57
2024/02/23 03:04:01;;;;;;;2.95;1.15;;;6.70;99.90;;;;;;4993817;28;20049;-54
2024/02/23 03:06:26;;;;;;;4.88;1.05;;;6.70;99.90;;;;;;4993489;28;20105;-55
2024/02/23 03:08:52;;;;;;;2.03;1.00;;;6.70;99.90;;;;;;4993682;28;20018;-53
2024/02/23 03:11:17;;;;;;;1.80;1.02;;;6.70;99.90;;;;;;4993553;28;20206;-51
2024/02/23 03:13:43;;;;;;;1.40;1.30;;;6.80;99.90;;;;;;4993901;28;20114;-53
2024/02/23 03:16:17;;;;;;;9.73;1.20;;;6.70;99.90;;;;;;4992744;28;20092;-57
2024/02/23 03:18:43;;;;;;;3.93;0.80;;;6.80;99.90;;;;;;4993427;28;20027;-56
2024/02/23 03:21:09;;;;;;;4.00;1.05;;;6.80;99.90;;;;;;4993396;28;20034;-57
2024/02/23 03:23:35;;;;;;;3.22;0.80;;;6.90;99.90;;;;;;4993254;28;20050;-56
2024/02/23 03:26:02;;;;;;;1.25;0.80;;;6.80;99.90;;;;;;4992898;28;20022;-57
2024/02/23 03:28:27;;;;;;;1.40;0.75;;;6.80;99.90;;;;;;4992582;28;20072;-55
2024/02/23 03:30:53;;;;;;;1.75;0.75;;;6.80;99.90;;;;;;4993222;28;20058;-55
2024/02/23 03:33:18;;;;;;;1.17;1.00;;;6.70;99.90;;;;;;4975533;28;20511;-55
2024/02/23 03:35:44;;;;;;;2.45;0.98;;;6.70;99.90;;;;;;4993011;28;20168;-52
2024/02/23 03:38:09;;;;;;;2.60;0.98;;;6.70;99.90;;;;;;4992905;28;20037;-55
2024/02/23 03:40:35;;;;;;;5.55;1.23;;;6.80;99.90;;;;;;4993108;28;20409;-51
2024/02/23 03:43:02;;;;;;;2.17;1.23;;;6.70;99.90;;;;;;4993298;28;20026;-54
2024/02/23 03:45:27;;;;;;;2.03;1.00;;;6.70;99.90;;;;;;4992691;28;20022;-51
2024/02/23 03:47:53;;;;;;;6.28;1.40;;;6.70;99.90;;;;;;4992659;28;20026;-53
2024/02/23 03:50:18;;;;;;;3.67;0.90;;;6.70;99.90;;;;;;4993073;28;20030;-55
2024/02/23 03:52:44;;;;;;;3.97;1.27;;;6.70;99.90;;;;;;4975305;28;20040;-58
2024/02/23 03:55:09;;;;;;;2.78;1.10;;;6.70;99.90;;;;;;4992661;28;20026;-52
2024/02/23 03:57:35;;;;;;;5.43;1.10;;;6.70;99.90;;;;;;4992588;28;20030;-50
2024/02/23 04:00:00;;;;;;;2.35;0.75;;;6.70;99.90;;;;;;4992685;28;20396;-54
2024/02/23 04:02:26;;;;;;;2.92;0.93;;;6.70;99.90;;;;;;4992554;28;20030;-53
2024/02/23 04:04:51;;;;;;;0.73;0.73;;;6.80;99.90;;;;;;4992600;28;20022;-55
2024/02/23 04:07:17;;;;;;;2.67;0.82;;;6.80;99.90;;;;;;4991117;28;20027;-51
2024/02/23 04:09:42;;;;;;;1.65;1.17;;;6.80;99.90;;;;;;4992575;28;20399;-57
2024/02/23 04:12:08;;;;;;;2.55;1.00;;;6.80;99.90;;;;;;4974994;28;20026;-56
2024/02/23 04:14:36;;;;;;;2.13;0.90;;;6.70;99.90;;;;;;4991913;28;20033;-53
2024/02/23 04:17:04;;;;;;;2.83;1.17;;;6.60;99.90;;;;;;4992136;28;20034;-56
2024/02/23 04:19:30;;;;;;;3.05;1.08;;;6.60;99.90;;;;;;4974905;28;20476;-53
2024/02/23 04:21:55;;;;;;;1.20;1.10;;;6.60;99.90;;;;;;4992314;28;20026;-54
2024/02/23 04:24:21;;;;;;;3.47;1.17;;;6.60;99.90;;;;;;4974764;28;20497;-55
2024/02/23 04:26:47;;;;;;;1.83;1.15;;;6.60;99.90;;;;;;4991930;28;20038;-55
2024/02/23 04:29:12;;;;;;;2.67;1.27;;;6.60;99.90;;;;;;4992226;28;20400;-53
2024/02/23 04:31:38;;;;;;;3.05;1.27;;;6.50;99.90;;;;;;4992567;28;20027;-53
2024/02/23 04:34:03;;;;;;;2.83;1.00;;;6.50;99.90;;;;;;4974637;28;20018;-54
2024/02/23 04:36:29;;;;;;;5.35;1.25;;;6.50;99.90;;;;;;4991914;28;20427;-51
2024/02/23 04:38:55;;;;;;;3.20;1.15;;;6.40;99.90;;;;;;4992099;28;20026;-52
2024/02/23 04:41:24;;;;;;;5.18;0.90;;;6.40;99.90;;;;;;4992166;28;20085;-51
2024/02/23 04:43:50;;;;;;;2.92;1.20;;;6.30;99.90;;;;;;4991862;28;20041;-57
2024/02/23 04:46:16;;;;;;;2.25;1.17;;;6.30;99.90;;;;;;4991619;28;20049;-52
2024/02/23 04:48:41;;;;;;;3.80;1.20;;;6.40;99.90;;;;;;4991949;28;20069;-53
2024/02/23 04:51:09;;;;;;;2.38;0.80;;;6.40;99.90;;;;;;4992065;28;20034;-50
2024/02/23 04:53:38;;;;;;;5.00;1.00;;;6.40;99.90;;;;;;4992092;28;20030;-51
2024/02/23 04:56:05;;;;;;;4.38;0.93;;;6.30;99.90;;;;;;4991873;28;20061;-51
2024/02/23 04:58:30;;;;;;;2.05;1.00;;;6.30;99.90;;;;;;4992034;28;20026;-52
2024/02/23 05:00:56;;;;;;;4.28;1.23;;;6.30;99.90;;;;;;4991973;28;20034;-51
2024/02/23 05:03:21;;;;;;;6.03;1.63;;;6.30;99.90;;;;;;4974838;28;20500;-51
2024/02/23 05:05:48;;;;;;;4.72;1.75;;;6.20;99.90;;;;;;4991727;28;20066;-49
2024/02/23 05:08:13;;;;;;;4.13;1.23;;;6.20;99.90;;;;;;4991854;28;20023;-51
2024/02/23 05:10:39;;;;;;;3.42;1.00;;;6.20;99.90;;;;;;4991851;28;20396;-56
2024/02/23 05:13:04;;;;;;;2.47;0.98;;;6.10;99.90;;;;;;4991862;28;20038;-53
2024/02/23 05:15:30;;;;;;;3.50;0.90;;;6.10;99.90;;;;;;4991819;28;20112;-52
2024/02/23 05:17:55;;;;;;;2.95;1.45;;;6.10;99.90;;;;;;4974383;28;20612;-52
2024/02/23 05:20:21;;;;;;;2.58;1.10;;;6.10;99.90;;;;;;4991808;28;20038;-54
2024/02/23 05:22:47;;;;;;;1.88;0.90;;;6.10;99.90;;;;;;4991693;28;20033;-57
2024/02/23 05:25:13;;;;;;;7.25;1.20;;;6.10;99.90;;;;;;4991558;28;20431;-53
2024/02/23 05:27:39;;;;;;;2.10;0.82;;;6.10;99.90;;;;;;4991542;28;20015;-51
2024/02/23 05:30:06;;;;;;;5.22;1.70;;;6.00;99.90;;;;;;4991816;28;20338;-51
2024/02/23 05:32:32;;;;;;;2.63;1.10;;;6.00;99.90;;;;;;4991563;28;20042;-53
2024/02/23 05:34:57;;;;;;;2.35;1.05;;;6.00;99.90;;;;;;4991407;28;20496;-52
2024/02/23 05:37:23;;;;;;;3.03;1.58;;;6.00;99.90;;;;;;4991375;28;20032;-52
2024/02/23 05:39:49;;;;;;;7.63;1.20;;;6.00;99.90;;;;;;4974249;28;20495;-55
2024/02/23 05:42:15;;;;;;;2.10;0.95;;;5.90;99.90;;;;;;4991610;28;20030;-55
2024/02/23 05:44:44;;;;;;;8.23;1.30;;;6.00;99.90;;;;;;4991387;28;20392;-51
2024/02/23 05:47:09;;;;;;;4.78;1.13;;;6.00;99.90;;;;;;4991417;28;20034;-51
2024/02/23 05:49:35;;;;;;;5.25;1.02;;;6.00;99.90;;;;;;4991490;28;20022;-55
2024/02/23 05:52:01;;;;;;;5.75;1.00;;;6.00;99.90;;;;;;4974921;28;20022;-55
2024/02/23 05:54:26;;;;;;;2.97;1.30;;;5.90;99.90;;;;;;4995009;28;20483;-56
2024/02/23 05:56:52;;;;;;;4.55;1.33;;;6.00;99.90;;;;;;4996113;28;20030;-55
2024/02/23 05:59:17;;;;;;;6.25;1.60;;;6.00;99.90;;;;;;4995357;28;20030;-51
2024/02/23 06:01:43;;;;;;;8.15;1.60;;;6.00;99.90;;;;;;4994892;28;20022;-56
2024/02/23 06:04:09;;;;;;;3.53;0.77;;;6.00;99.90;;;;;;4994494;28;20071;-53
2024/02/23 06:06:34;;;;;;;11.65;1.30;;;6.00;99.90;;;;;;4994303;28;20407;-51
2024/02/23 06:09:00;;;;;;;4.82;1.52;;;6.00;99.90;;;;;;4994717;28;20026;-51
2024/02/23 06:11:26;;;;;;;1.58;1.08;;;6.10;99.90;;;;;;4994633;28;20023;-53
2024/02/23 06:13:51;;;;;;;4.68;1.25;;;6.10;99.90;;;;;;4977126;28;20024;-54
2024/02/23 06:16:17;;;;;;;4.95;1.00;;;6.20;99.90;;;;;;4976831;28;20026;-59
2024/02/23 06:18:45;;;;;;;3.72;1.10;;;6.10;99.90;;;;;;4994910;28;20026;-56
2024/02/23 06:21:19;;;;;;;5.50;1.00;;;6.20;99.90;;;;;;4994821;28;20492;-56
2024/02/23 06:23:45;;;;;;;3.55;1.13;;;6.20;99.90;;;;;;4994475;28;20026;-56
2024/02/23 06:26:11;;;;;;;3.65;1.27;;;6.20;99.90;;;;;;4994251;28;20026;-57
2024/02/23 06:28:38;;;;;;;5.03;1.27;;;6.30;99.90;;;;;;4994434;28;20054;-54
2024/02/23 06:31:08;;;;;;;6.18;1.20;;;6.40;99.90;;;;;;4994281;28;20480;-58
2024/02/23 06:33:33;;;;;;;2.60;1.92;;;6.40;99.90;;;;;;4994133;28;20031;-55
2024/02/23 06:35:59;;;;;;;6.43;1.10;;;6.50;99.90;;;;;;4976321;28;20550;-53
2024/02/23 06:38:24;;;;;;;3.58;1.05;;;6.50;99.90;;;;;;4994217;28;20083;-54
2024/02/23 06:40:50;;;;;;;4.75;0.88;;;6.50;99.90;;;;;;4994033;28;20031;-54
2024/02/23 06:43:16;;;;;;;1.48;1.33;;;6.60;99.90;;;;;;4993982;28;20102;-58
2024/02/23 06:45:42;;;;;;;4.18;2.05;;;6.60;99.90;;;;;;4976151;28;20031;-53
2024/02/23 06:48:08;;;;;;;5.95;1.15;;;6.60;99.90;;;;;;4993871;28;20022;-52
2024/02/23 06:50:33;;;;;;;5.63;1.65;;;6.70;99.90;;;;;;4993968;28;20023;-57
2024/02/23 06:52:59;;;;;;;3.05;0.95;;;6.60;99.90;;;;;;4993823;28;20101;-55
2024/02/23 06:55:24;;;;;;;7.57;1.65;;;6.60;99.90;;;;;;4976118;28;20369;-53
2024/02/23 06:57:50;;;;;;;2.65;1.33;;;6.70;99.90;;;;;;4993636;28;20031;-53
2024/02/23 07:00:15;;;;;;;9.45;1.85;;;6.70;99.90;;;;;;4993733;28;20030;-53
2024/02/23 07:02:41;;;;;;;7.78;2.45;;;6.80;99.90;;;;;;4993492;28;20542;-55
2024/02/23 07:05:07;;;;;;;3.30;1.25;;;6.80;99.90;;;;;;4992816;28;20063;-50
2024/02/23 07:07:34;;;;;;;5.75;1.17;;;6.80;99.90;;;;;;4993882;28;20026;-50
2024/02/23 07:10:00;;;;;;;4.75;1.67;;;6.80;99.90;;;;;;4994052;28;20022;-55
2024/02/23 07:12:29;;;;;;;2.47;0.93;;;6.90;99.90;;;;;;4993608;28;20030;-57
2024/02/23 07:14:57;;;;;;;3.65;1.52;;;7.00;99.90;;;;;;4992992;28;20026;-49
2024/02/23 07:18:16;;;;;;;4.70;1.00;;;7.00;99.90;;;;;;4994082;28;20496;-61
2024/02/23 07:20:41;;;;;;;1.98;1.02;;;7.30;99.90;;;;;;4992206;28;20450;-58
2024/02/23 07:23:07;;;;;;;1.95;0.98;;;7.60;99.90;;;;;;4993407;28;20030;-56
2024/02/23 07:25:33;;;;;;;6.25;1.33;;;7.60;99.90;;;;;;4993133;28;20053;-57
2024/02/23 07:27:58;;;;;;;2.85;1.30;;;7.60;99.90;;;;;;4993128;28;20027;-56
2024/02/23 07:30:24;;;;;;;5.10;0.93;;;7.50;99.90;;;;;;4993279;28;20487;-58
2024/02/23 07:32:49;;;;;;;3.63;0.93;;;7.80;99.90;;;;;;4993081;28;20029;-56
2024/02/23 07:35:15;;;;;;;3.22;1.10;;;8.10;99.90;;;;;;4975474;28;20050;-53
2024/02/23 07:37:41;;;;;;;8.25;1.40;;;8.20;99.90;;;;;;4992893;28;20101;-57
2024/02/23 07:40:07;;;;;;;6.20;1.08;;;8.10;99.90;;;;;;4992968;28;20050;-59
2024/02/23 07:42:35;;;;;;;3.05;0.90;;;7.90;99.90;;;;;;4992976;28;20023;-55
2024/02/23 07:45:04;;;;;;;2.05;0.98;;;7.80;99.90;;;;;;4992790;28;20018;-59
2024/02/23 07:47:30;;;;;;;8.85;1.27;;;7.60;99.90;;;;;;4975246;28;20077;-53
2024/02/23 07:49:55;;;;;;;1.90;1.20;;;7.40;99.90;;;;;;4992756;28;20026;-53
2024/02/23 07:52:23;;;;;;;3.03;1.10;;;7.40;99.90;;;;;;4992773;28;20034;-57
2024/02/23 07:54:51;;;;;;;2.78;1.00;;;;;;;;;;4992582;28;20503;-56
2024/02/23 07:57:17;;;;;;;5.63;1.30;;;7.40;99.90;;;;;;4992706;28;20427;-56
2024/02/23 07:59:43;;;;;;;7.38;1.60;;;7.40;99.90;;;;;;4992651;28;20027;-57
2024/02/23 08:02:08;;;;;;;7.15;1.23;;;7.40;99.90;;;;;;4992780;28;20580;-51
2024/02/23 08:04:34;;;;;;;4.10;1.17;;;7.50;99.90;;;;;;4992393;28;20050;-52
2024/02/23 08:07:00;;;;;;;4.82;1.15;;;7.50;99.90;;;;;;4992549;28;20546;-53
2024/02/23 08:09:25;;;;;;;1.75;1.30;;;7.60;99.90;;;;;;4992593;28;20484;-57
2024/02/23 08:11:51;;;;;;;6.97;1.05;;;7.60;99.90;;;;;;4992563;28;20022;-55
2024/02/23 08:14:16;;;;;;;5.05;1.40;;;7.70;99.90;;;;;;4992054;28;20110;-56
2024/02/23 08:16:42;;;;;;;3.75;1.10;;;7.70;99.90;;;;;;4991604;28;20400;-55
2024/02/23 08:19:08;;;;;;;5.78;2.03;;;7.60;99.90;;;;;;4992263;28;20104;-59
2024/02/23 08:21:33;;;;;;;4.35;1.77;;;7.60;99.90;;;;;;4974824;28;20077;-53
2024/02/23 08:23:59;;;;;;;4.60;1.83;;;7.60;99.90;;;;;;4992209;28;20069;-49
2024/02/23 08:26:24;;;;;;;3.25;1.92;;;7.60;99.90;;;;;;4993366;28;20045;-52
2024/02/23 08:28:50;;;;;;;15.73;1.92;;;7.70;99.90;;;;;;4974590;28;20023;-51
2024/02/23 08:31:16;;;;;;;6.10;1.73;;;7.80;99.90;;;;;;4977334;28;20023;-47
2024/02/23 08:33:42;;;;;;;5.30;1.88;;;7.80;99.90;;;;;;4992380;28;20069;-52
2024/02/23 08:36:07;;;;;;;6.35;2.20;;;7.90;99.90;;;;;;4985077;28;20471;-50
2024/02/23 08:38:33;;;;;;;2.40;1.15;;;7.90;99.90;;;;;;4975708;28;20054;-50
2024/02/23 08:40:59;;;;;;;8.07;1.85;;;7.90;99.90;;;;;;4973493;28;20377;-54
2024/02/23 08:43:24;;;;;;;6.25;1.45;;;7.80;99.90;;;;;;4990551;28;20030;-51
2024/02/23 08:45:51;;;;;;;4.93;1.20;;;7.90;99.90;;;;;;4983910;28;20037;-49
2024/02/23 08:48:16;;;;;;;7.80;1.23;;;7.90;99.90;;;;;;4992297;28;20109;-53
2024/02/23 08:50:42;;;;;;;7.38;1.50;;;8.00;99.90;;;;;;4988517;28;20065;-54
2024/02/23 08:53:07;;;;;;;5.28;1.35;;;8.10;99.90;;;;;;4983097;28;20037;-52
2024/02/23 08:55:33;;;;;;;7.70;1.52;;;8.30;99.90;;;;;;4975912;28;20106;-58
2024/02/23 08:57:59;;;;;;;4.35;1.30;;;8.30;99.90;;;;;;4972454;28;20484;-55
2024/02/23 09:00:24;;;;;;;6.88;1.50;;;8.40;99.90;;;;;;4972588;28;20437;-53
2024/02/23 09:02:50;;;;;;;3.05;1.15;;;8.50;99.90;;;;;;4975370;28;20492;-53
2024/02/23 09:05:15;;;;;;;2.83;1.13;;;8.50;99.90;;;;;;4972763;28;20063;-51
2024/02/23 09:07:41;;;;;;;3.85;1.13;;;8.30;99.90;;;;;;4991830;28;20493;-52
2024/02/23 09:10:07;;;;;;;10.15;1.35;;;8.20;99.90;;;;;;4967807;28;20029;-53
2024/02/23 09:12:35;;;;;;;3.92;1.52;;;8.20;99.90;;;;;;4992118;28;20022;-49
2024/02/23 09:15:00;;;;;;;7.75;2.28;;;8.10;99.90;;;;;;4991875;28;20061;-52
2024/02/23 09:17:26;;;;;;;8.10;1.38;;;8.10;99.90;;;;;;4991951;28;20074;-50
2024/02/23 09:19:51;;;;;;;14.93;1.52;;;8.10;99.90;;;;;;4991873;28;20427;-49
2024/02/23 09:22:17;;;;;;;12.05;1.60;;;8.10;99.90;;;;;;4974373;28;20042;-51
2024/02/23 09:24:43;;;;;;;16.88;1.80;;;8.00;99.90;;;;;;4990336;28;20038;-51
2024/02/23 09:27:08;;;;;;;3.80;1.30;;;8.10;99.90;;;;;;4975569;28;20027;-52
2024/02/23 09:29:34;;;;;;;5.38;1.38;;;8.10;99.90;;;;;;4999835;28;20033;-49
2024/02/23 09:32:00;;;;;;;4.22;1.15;;;8.10;99.90;;;;;;4997472;28;20540;-52
2024/02/23 09:34:26;;;;;;;5.75;1.55;;;8.30;99.90;;;;;;5014468;28;20101;-51
2024/02/23 09:36:51;;;;;;;3.15;1.60;;;8.40;99.90;;;;;;5014714;28;20553;-50
2024/02/23 09:39:17;;;;;;;4.72;1.50;;;8.70;99.90;;;;;;5014773;28;20034;-50
2024/02/23 09:41:43;;;;;;;3.05;1.00;;;9.40;99.90;;;;;;5014672;28;20030;-52
2024/02/23 09:44:09;;;;;;;5.07;1.25;;;9.80;99.90;;;;;;4997098;28;20522;-53
2024/02/23 09:46:37;;;;;;;4.20;1.10;;;9.90;99.90;;;;;;4996725;28;20070;-56
2024/02/23 09:49:03;;;;;;;9.32;2.08;;;9.70;99.90;;;;;;5014726;28;20029;-52
2024/02/23 09:51:30;;;;;;;4.50;1.40;;;9.50;99.90;;;;;;5014703;28;20029;-49
2024/02/23 09:53:57;;;;;;;4.55;1.98;;;9.30;99.90;;;;;;4985975;28;20031;-51
2024/02/23 09:56:28;;;;;;;3.60;1.10;;;9.10;99.90;;;;;;4980677;28;20392;-51
2024/02/23 09:58:56;;;;;;;41.75;4.07;;;8.80;99.90;;;;;;4975563;28;20106;-53
2024/02/23 10:01:28;;;;;;;3.05;1.58;;;8.80;99.90;;;;;;4975363;28;20038;-51
2024/02/23 10:03:57;;;;;;;9.48;1.52;;;8.80;99.90;;;;;;4976384;28;20374;-53
2024/02/23 10:06:23;;;;;;;2.92;1.23;;;8.80;99.90;;;;;;4976269;28;20026;-55
2024/02/23 10:08:49;;;;;;;7.72;1.35;;;8.80;99.90;;;;;;4975597;28;20034;-53
2024/02/23 10:11:18;;;;;;;4.25;1.48;;;8.70;99.90;;;;;;4957959;28;20396;-55
2024/02/23 10:13:44;;;;;;;4.00;0.93;;;8.70;99.90;;;;;;4975237;28;20106;-56
2024/02/23 10:16:10;;;;;;;2.38;1.27;;;8.70;99.90;;;;;;4973355;28;20456;-56
2024/02/23 10:18:38;;;;;;;5.18;1.58;;;8.60;99.90;;;;;;4974702;28;20034;-55
2024/02/23 10:21:05;;;;;;;12.55;1.50;;;8.60;99.90;;;;;;4977733;28;20039;-51
2024/02/23 10:23:30;;;;;;;4.50;1.15;;;8.50;99.90;;;;;;4986048;28;20049;-55
2024/02/23 10:25:56;;;;;;;6.45;1.65;;;8.60;99.90;;;;;;4993778;28;20035;-54
2024/02/23 10:28:22;;;;;;;5.05;1.58;;;8.70;99.90;;;;;;4994453;28;20073;-53
2024/02/23 10:30:48;;;;;;;7.03;1.27;;;8.80;99.90;;;;;;4981674;28;20035;-57
2024/02/23 10:33:14;;;;;;;5.65;1.17;;;8.90;99.90;;;;;;4994753;28;20027;-52
2024/02/23 10:35:42;;;;;;;8.98;2.15;;;9.30;99.90;;;;;;4994103;28;20022;-56
2024/02/23 10:38:11;;;;;;;8.20;1.42;;;9.70;99.90;;;;;;4981145;28;20029;-53
2024/02/23 10:40:42;;;;;;;3.65;1.13;;;9.80;99.90;;;;;;4989978;28;20038;-51
2024/02/23 10:43:15;;;;;;;4.93;1.23;;;9.90;99.90;;;;;;4988536;28;20054;-52
2024/02/23 10:45:41;;;;;;;5.32;1.08;;;9.90;99.90;;;;;;4974547;28;20165;-56
2024/02/23 10:48:11;;;;;;;5.13;1.75;;;9.60;99.90;;;;;;4982566;28;20077;-51
2024/02/23 10:50:37;;;;;;;5.00;1.15;;;9.40;99.90;;;;;;4992927;28;20449;-51
2024/02/23 10:53:07;;;;;;;6.35;1.63;;;9.30;99.90;;;;;;4986448;28;20404;-54
2024/02/23 10:55:33;;;;;;;7.85;1.55;;;9.40;99.90;;;;;;4957196;28;20031;-52
2024/02/23 10:57:59;;;;;;;7.85;2.10;;;9.20;99.90;;;;;;4984200;28;20062;-54
2024/02/23 11:00:25;;;;;;;6.22;1.35;;;9.20;99.90;;;;;;4994015;28;20030;-54
2024/02/23 11:02:53;;;;;;;13.02;2.30;;;9.20;99.90;;;;;;4994542;28;20044;-50
2024/02/23 11:05:19;;;;;;;4.18;2.20;;;9.00;99.90;;;;;;4993910;28;20519;-52
2024/02/23 11:07:49;;;;;;;5.20;2.88;;;8.90;99.90;;;;;;4993481;28;20039;-53
2024/02/23 11:10:15;;;;;;;6.05;1.23;;;8.90;99.90;;;;;;4994335;28;20018;-54
2024/02/23 11:12:41;;;;;;;6.50;1.20;;;8.90;99.90;;;;;;4976479;28;20034;-52
2024/02/23 11:15:08;;;;;;;3.28;1.30;;;9.00;99.90;;;;;;4993445;28;20054;-50
2024/02/23 11:17:38;;;;;;;7.97;2.00;;;9.10;99.90;;;;;;4993513;28;20038;-54
2024/02/23 11:20:04;;;;;;;8.20;1.55;;;9.10;99.90;;;;;;4993823;28;20022;-51
2024/02/23 11:22:31;;;;;;;6.57;1.27;;;9.20;99.90;;;;;;4993726;28;20045;-52
2024/02/23 11:25:03;;;;;;;6.43;1.70;;;9.40;99.90;;;;;;4993592;28;20033;-53
2024/02/23 11:27:31;;;;;;;3.85;1.70;;;9.40;99.90;;;;;;4993614;28;20403;-51
2024/02/23 11:30:06;;;;;;;6.43;1.42;;;9.40;99.90;;;;;;4992100;28;20081;-56
2024/02/23 11:32:43;;;;;;;6.50;1.40;;;9.50;99.90;;;;;;4993504;28;20514;-54
2024/02/23 11:35:11;;;;;;;11.57;1.65;;;9.60;99.90;;;;;;4993964;28;20023;-55
2024/02/23 11:37:59;;;;;;;9.63;1.83;;;9.60;99.90;;;;;;5011923;28;20029;-57
2024/02/23 11:40:26;;;;;;;10.52;1.98;;;9.50;99.90;;;;;;4998934;28;20022;-52
2024/02/23 11:42:51;;;;;;;6.05;1.45;;;9.50;99.90;;;;;;4985681;28;20039;-54
2024/02/23 11:45:17;;;;;;;6.50;2.08;;;9.40;99.90;;;;;;4978413;28;20044;-54
2024/02/23 11:47:43;;;;;;;6.93;2.17;;;9.40;99.90;;;;;;4992718;28;20058;-53
2024/02/23 11:50:10;;;;;;;6.15;1.50;;;9.40;99.90;;;;;;4977856;28;20030;-52
2024/02/23 11:52:40;;;;;;;5.68;1.42;;;9.50;99.90;;;;;;4977506;28;20039;-53
2024/02/23 11:55:08;;;;;;;6.88;1.52;;;9.50;99.90;;;;;;4974166;28;20031;-52
2024/02/23 11:57:34;;;;;;;9.18;2.17;;;9.50;99.90;;;;;;4978349;28;20037;-51
2024/02/23 12:00:06;;;;;;;10.95;2.08;;;9.60;99.90;;;;;;4992795;28;20108;-54
2024/02/23 12:02:35;;;;;;;7.97;1.75;;;9.70;99.90;;;;;;4986820;28;20019;-54
2024/02/23 12:05:01;;;;;;;6.70;1.42;;;9.80;99.90;;;;;;4985739;28;20037;-56
2024/02/23 12:07:32;;;;;;;7.07;1.85;;;9.90;99.90;;;;;;4980448;28;20034;-58
2024/02/23 12:09:57;;;;;;;4.68;1.27;;;9.90;99.90;;;;;;4992326;28;20528;-55
2024/02/23 12:12:25;;;;;;;5.60;1.48;;;9.90;99.90;;;;;;4992496;28;20026;-54
2024/02/23 12:14:50;;;;;;;3.95;0.95;;;9.80;99.90;;;;;;4992099;28;20019;-58
2024/02/23 12:17:16;;;;;;;3.15;0.90;;;9.80;99.90;;;;;;4974617;28;20037;-51
2024/02/23 12:19:42;;;;;;;3.25;1.00;;;9.80;99.90;;;;;;4992260;28;20045;-56
2024/02/23 12:22:07;;;;;;;3.28;0.82;;;9.50;99.90;;;;;;4991775;28;20042;-52
2024/02/23 12:24:34;;;;;;;7.22;1.00;;;9.90;99.90;;;;;;4992107;28;20030;-55
2024/02/23 12:27:00;;;;;;;6.03;1.42;;;10.20;99.90;;;;;;4974384;28;20038;-51
2024/02/23 12:29:27;;;;;;;4.88;1.33;;;10.40;99.90;;;;;;4956518;28;20030;-52
2024/02/23 12:32:03;;;;;;;2.47;0.90;;;10.40;99.90;;;;;;4972714;28;20022;-55
2024/02/23 12:34:29;;;;;;;8.45;1.83;;;10.30;99.90;;;;;;4972663;28;20440;-55
2024/02/23 12:36:55;;;;;;;6.82;1.08;;;10.30;99.90;;;;;;4985869;28;20046;-54
2024/02/23 12:39:21;;;;;;;8.18;1.50;;;10.40;99.90;;;;;;4976704;28;20039;-52
2024/02/23 12:41:46;;;;;;;4.82;1.33;;;10.40;99.90;;;;;;4973754;28;20029;-54
2024/02/23 12:44:12;;;;;;;4.32;1.33;;;10.50;99.90;;;;;;4972500;28;20033;-55
2024/02/23 12:46:37;;;;;;;2.75;0.98;;;10.70;99.90;;;;;;4972228;28;20027;-52
2024/02/23 12:49:03;;;;;;;6.15;1.20;;;10.60;99.90;;;;;;4972599;28;20022;-53
2024/02/23 12:51:29;;;;;;;2.92;1.38;;;10.40;99.90;;;;;;4972811;28;20106;-50
2024/02/23 12:53:54;;;;;;;9.00;1.17;;;10.40;99.90;;;;;;4972588;28;20027;-55